Time;durP1;ratioP1;P1;durP2;ratioP2;P2;SDS_P1;SDS_P2;PMS_P1;PMS_P2;Temp;Humidity;BMP_temperature;BMP_pressure;BME280_temperature;BME280_humidity;BME280_pressure;Samples;Min_cycle;Max_cycle;Signal;HPM_P1;HPM_P2
2022/05/25 00:01:25;;;;;;;1.60;1.30;;;15.70;99.90;;;;;;4915898;29;20233;-90
2022/05/25 00:03:53;;;;;;;1.08;1.08;;;15.70;99.90;;;;;;4918245;29;20257;-91
2022/05/25 00:06:24;;;;;;;1.40;1.30;;;15.70;99.90;;;;;;4915777;29;20222;-91
2022/05/25 00:08:52;;;;;;;1.30;1.20;;;15.70;99.90;;;;;;4916158;29;20274;-90
2022/05/25 00:11:21;;;;;;;1.20;1.20;;;15.70;99.90;;;;;;4916259;29;20222;-91
2022/05/25 00:13:49;;;;;;;0.80;0.80;;;15.70;99.90;;;;;;4915710;29;20235;-91
2022/05/25 00:16:18;;;;;;;1.63;1.52;;;15.70;99.90;;;;;;4915376;29;20210;-90
2022/05/25 00:21:31;;;;;;;7.72;1.40;;;15.70;99.90;;;;;;4917108;29;20206;-90
2022/05/25 00:24:00;;;;;;;1.35;1.20;;;15.70;99.90;;;;;;4920425;29;20230;-90
2022/05/25 00:26:28;;;;;;;1.60;1.42;;;15.60;99.90;;;;;;4917703;29;20223;-90
2022/05/25 00:28:57;;;;;;;1.40;1.30;;;15.70;99.90;;;;;;4918035;29;20257;-90
2022/05/25 00:31:25;;;;;;;1.33;1.23;;;15.70;99.90;;;;;;4917782;29;20214;-90
2022/05/25 00:33:54;;;;;;;2.08;1.63;;;15.70;99.90;;;;;;4917813;29;20230;-91
2022/05/25 00:36:22;;;;;;;1.50;1.40;;;15.70;99.90;;;;;;4917924;29;20210;-91
2022/05/25 00:38:52;;;;;;;1.05;1.05;;;15.70;99.90;;;;;;4917491;29;20219;-90
2022/05/25 00:41:24;;;;;;;1.35;1.25;;;15.60;99.90;;;;;;4917628;29;20269;-90
2022/05/25 00:43:52;;;;;;;1.23;1.20;;;15.70;99.90;;;;;;4917670;29;20230;-89
2022/05/25 00:46:22;;;;;;;1.20;1.10;;;15.70;99.90;;;;;;4918087;29;20207;-90
2022/05/25 00:48:53;;;;;;;1.20;1.20;;;15.70;99.90;;;;;;4917666;29;20210;-89
2022/05/25 00:51:26;;;;;;;0.80;0.80;;;15.70;99.90;;;;;;4917678;29;20211;-90
2022/05/25 00:54:00;;;;;;;0.98;0.98;;;15.70;99.90;;;;;;4917745;29;20230;-89
2022/05/25 00:56:30;;;;;;;1.23;1.15;;;15.70;99.90;;;;;;4917147;29;20238;-89
2022/05/25 00:59:03;;;;;;;1.65;1.52;;;15.70;99.90;;;;;;4916988;29;20231;-89
2022/05/25 01:01:32;;;;;;;1.77;1.20;;;15.70;99.90;;;;;;4917217;29;20226;-89
2022/05/25 01:04:01;;;;;;;2.15;1.45;;;15.70;99.90;;;;;;4917269;29;20314;-89
2022/05/25 01:06:43;;;;;;;1.17;1.13;;;15.70;99.90;;;;;;4917427;29;20222;-89
2022/05/25 01:09:23;;;;;;;1.67;1.38;;;15.70;99.90;;;;;;4917217;29;20211;-89
2022/05/25 01:12:05;;;;;;;1.25;1.17;;;15.70;99.90;;;;;;4917025;29;20206;-89
2022/05/25 01:14:50;;;;;;;1.17;1.17;;;15.70;99.90;;;;;;4917287;29;20238;-89
2022/05/25 01:17:27;;;;;;;1.15;1.05;;;15.70;99.90;;;;;;4916892;29;20321;-90
2022/05/25 01:20:06;;;;;;;1.00;1.00;;;15.70;99.90;;;;;;4917402;29;20269;-89
2022/05/25 01:23:05;;;;;;;1.30;1.00;;;15.70;99.90;;;;;;4917258;29;20289;-90
2022/05/25 01:26:00;;;;;;;0.80;0.80;;;15.80;99.90;;;;;;4908763;29;20305;-90
2022/05/25 01:28:42;;;;;;;0.70;0.70;;;15.70;99.90;;;;;;4916439;29;20286;-89
2022/05/25 01:31:20;;;;;;;0.95;0.95;;;15.70;99.90;;;;;;4916963;29;20306;-90
2022/05/25 01:33:55;;;;;;;1.00;1.00;;;15.70;99.90;;;;;;4916576;29;20234;-90
2022/05/25 01:36:28;;;;;;;1.50;1.25;;;15.70;99.90;;;;;;4917226;29;20269;-92
2022/05/25 01:39:02;;;;;;;0.93;0.93;;;15.70;99.90;;;;;;4915744;29;20234;-89
2022/05/25 01:41:37;;;;;;;0.68;0.68;;;15.70;99.90;;;;;;4916383;29;20207;-89
2022/05/25 01:44:09;;;;;;;0.82;0.80;;;15.60;99.90;;;;;;4916827;29;20225;-90
2022/05/25 01:46:44;;;;;;;1.20;1.02;;;15.70;99.90;;;;;;4916828;29;20268;-90
2022/05/25 01:49:17;;;;;;;1.08;1.08;;;15.70;99.90;;;;;;4916599;29;20202;-90
2022/05/25 01:51:50;;;;;;;1.20;1.20;;;15.60;99.90;;;;;;4916449;29;20221;-90
2022/05/25 01:54:24;;;;;;;0.90;0.90;;;15.60;99.90;;;;;;4916971;29;20257;-90
2022/05/25 01:56:56;;;;;;;0.93;0.93;;;15.60;99.90;;;;;;4917009;29;20233;-90
2022/05/25 01:59:24;;;;;;;1.02;1.02;;;15.60;99.90;;;;;;4916426;29;20293;-90
2022/05/25 02:04:40;;;;;;;1.10;1.10;;;15.70;99.90;;;;;;4915772;29;20230;-89
2022/05/25 02:07:22;;;;;;;0.90;0.90;;;15.60;99.90;;;;;;4916380;29;20297;-89
2022/05/25 02:10:17;;;;;;;0.88;0.85;;;15.60;99.90;;;;;;4916401;29;20237;-90
2022/05/25 02:13:11;;;;;;;0.93;0.90;;;15.70;99.90;;;;;;4916428;29;20278;-90
2022/05/25 02:15:48;;;;;;;0.60;0.60;;;15.60;99.90;;;;;;4916244;29;20246;-90
2022/05/25 02:18:30;;;;;;;0.65;0.65;;;15.70;99.90;;;;;;4916370;29;20237;-90
2022/05/25 02:21:04;;;;;;;2.45;1.00;;;15.70;99.90;;;;;;4916613;29;20233;-90
2022/05/25 02:23:44;;;;;;;0.95;0.95;;;15.60;99.90;;;;;;4916362;29;20293;-90
2022/05/25 02:26:18;;;;;;;1.75;0.70;;;15.60;99.90;;;;;;4916396;29;20269;-91
2022/05/25 02:28:52;;;;;;;1.92;0.95;;;15.60;99.90;;;;;;4916611;29;20206;-90
2022/05/25 02:31:26;;;;;;;1.58;0.73;;;15.60;99.90;;;;;;4916119;29;20309;-90
2022/05/25 02:33:59;;;;;;;0.93;0.93;;;15.60;99.90;;;;;;4916168;29;20258;-90
2022/05/25 02:36:29;;;;;;;0.80;0.80;;;15.60;99.90;;;;;;4916197;29;20218;-90
2022/05/25 02:38:57;;;;;;;0.82;0.82;;;15.60;99.90;;;;;;4915634;29;20243;-90
2022/05/25 02:41:30;;;;;;;0.80;0.80;;;15.60;99.90;;;;;;4915496;29;20274;-90
2022/05/25 02:44:00;;;;;;;0.77;0.77;;;15.60;99.90;;;;;;4916328;29;20318;-89
2022/05/25 02:46:28;;;;;;;0.70;0.70;;;15.60;99.90;;;;;;4916065;29;20270;-88
2022/05/25 02:48:59;;;;;;;0.70;0.70;;;15.50;99.90;;;;;;4915906;29;20206;-90
2022/05/25 02:51:27;;;;;;;0.80;0.80;;;15.50;99.90;;;;;;4918936;29;20214;-89
2022/05/25 02:53:56;;;;;;;0.95;0.95;;;15.50;99.90;;;;;;4919659;29;20318;-90
2022/05/25 02:56:24;;;;;;;0.70;0.70;;;15.50;99.90;;;;;;4919635;29;20207;-90
2022/05/25 02:58:52;;;;;;;0.98;0.98;;;15.50;99.90;;;;;;4919424;29;20318;-89
2022/05/25 03:01:21;;;;;;;0.77;0.77;;;15.40;99.90;;;;;;4919404;29;20210;-90
2022/05/25 03:03:49;;;;;;;1.02;1.02;;;15.40;99.90;;;;;;4919480;29;20268;-90
2022/05/25 03:06:20;;;;;;;1.25;1.15;;;15.40;99.90;;;;;;4919628;29;20226;-90
2022/05/25 03:08:48;;;;;;;2.85;1.10;;;15.40;99.90;;;;;;4919370;29;20318;-89
2022/05/25 03:11:17;;;;;;;0.90;0.90;;;15.40;99.90;;;;;;4918945;29;20283;-90
2022/05/25 03:13:48;;;;;;;0.70;0.70;;;15.30;99.90;;;;;;4918949;29;20278;-90
2022/05/25 03:16:18;;;;;;;0.85;0.85;;;15.30;99.90;;;;;;4918924;29;20221;-89
2022/05/25 03:18:48;;;;;;;1.30;1.20;;;15.40;99.90;;;;;;4919508;29;20226;-89
2022/05/25 03:21:16;;;;;;;0.77;0.55;;;15.40;99.90;;;;;;4918966;29;20203;-89
2022/05/25 03:23:46;;;;;;;1.30;1.20;;;15.40;99.90;;;;;;4918515;29;20235;-89
2022/05/25 03:26:16;;;;;;;1.13;1.02;;;15.50;99.90;;;;;;4918983;29;20248;-89
2022/05/25 03:28:45;;;;;;;0.70;0.70;;;15.40;99.90;;;;;;4918970;29;20237;-89
2022/05/25 03:31:13;;;;;;;0.70;0.70;;;15.40;99.90;;;;;;4918816;29;20230;-90
2022/05/25 03:33:42;;;;;;;0.63;0.63;;;15.30;99.90;;;;;;4919157;29;20249;-90
2022/05/25 03:36:10;;;;;;;0.70;0.70;;;15.30;99.90;;;;;;4918948;29;20210;-89
2022/05/25 03:38:38;;;;;;;0.68;0.68;;;15.30;99.90;;;;;;4918049;29;20318;-91
2022/05/25 03:41:09;;;;;;;0.52;0.50;;;15.30;99.90;;;;;;4918649;29;20210;-90
2022/05/25 03:43:39;;;;;;;0.57;0.57;;;15.30;99.90;;;;;;4918665;29;20253;-90
2022/05/25 03:46:08;;;;;;;0.60;0.60;;;15.30;99.90;;;;;;4918783;29;20233;-90
2022/05/25 03:48:36;;;;;;;0.70;0.70;;;15.30;99.90;;;;;;4918598;29;20217;-90
2022/05/25 03:51:05;;;;;;;0.57;0.57;;;15.40;99.90;;;;;;4918262;29;20234;-89
2022/05/25 03:53:33;;;;;;;0.40;0.40;;;15.40;99.90;;;;;;4918216;29;20238;-91
2022/05/25 03:56:01;;;;;;;0.90;0.90;;;15.30;99.90;;;;;;4918321;29;20206;-90
2022/05/25 03:58:31;;;;;;;0.50;0.47;;;15.30;99.90;;;;;;4918582;29;20210;-89
2022/05/25 04:01:00;;;;;;;0.73;0.73;;;15.30;99.90;;;;;;4918400;29;20203;-89
2022/05/25 04:03:29;;;;;;;1.25;0.75;;;15.40;99.90;;;;;;4917775;29;20226;-89
2022/05/25 04:05:57;;;;;;;2.97;0.57;;;15.40;99.90;;;;;;4918066;29;20245;-90
2022/05/25 04:08:26;;;;;;;0.60;0.60;;;15.40;99.90;;;;;;4918023;29;20211;-89
2022/05/25 04:10:54;;;;;;;0.82;0.82;;;15.30;99.90;;;;;;4917907;29;20293;-90
2022/05/25 04:13:23;;;;;;;0.70;0.70;;;15.40;99.90;;;;;;4918386;29;20231;-90
2022/05/25 04:15:52;;;;;;;0.60;0.60;;;15.40;99.90;;;;;;4917656;29;20214;-90
2022/05/25 04:18:21;;;;;;;0.50;0.50;;;15.40;99.90;;;;;;4918293;29;20215;-89
2022/05/25 04:20:49;;;;;;;0.60;0.60;;;15.40;99.90;;;;;;4917434;29;20287;-90
2022/05/25 04:23:20;;;;;;;0.60;0.60;;;15.40;99.90;;;;;;4917810;29;20237;-90
2022/05/25 04:25:48;;;;;;;0.65;0.65;;;15.40;99.90;;;;;;4919343;29;20270;-89
2022/05/25 04:28:16;;;;;;;3.25;1.10;;;15.50;99.90;;;;;;4917597;29;20228;-88
2022/05/25 04:30:45;;;;;;;7.63;1.08;;;15.50;99.90;;;;;;4917719;29;20247;-88
2022/05/25 04:33:18;;;;;;;15.27;1.10;;;15.40;99.90;;;;;;4917711;29;20289;-88
2022/05/25 04:35:55;;;;;;;1.65;0.88;;;15.20;99.90;;;;;;4917811;29;20217;-90
2022/05/25 04:38:23;;;;;;;0.70;0.70;;;15.10;99.90;;;;;;4917851;29;20221;-88
2022/05/25 04:40:52;;;;;;;1.25;1.15;;;15.00;99.90;;;;;;4916890;29;20230;-89
2022/05/25 04:43:26;;;;;;;0.63;0.63;;;14.90;99.90;;;;;;4917468;29;20230;-89
2022/05/25 04:45:56;;;;;;;0.80;0.80;;;14.90;99.90;;;;;;4917690;29;20209;-89
2022/05/25 04:48:26;;;;;;;0.60;0.60;;;14.80;99.90;;;;;;4918207;29;20211;-89
2022/05/25 04:51:00;;;;;;;0.73;0.65;;;14.80;99.90;;;;;;4917815;29;20202;-89
2022/05/25 04:53:37;;;;;;;1.10;1.10;;;14.80;99.90;;;;;;4917538;29;20230;-89
2022/05/25 04:58:52;;;;;;;1.05;1.05;;;14.90;99.90;;;;;;4917397;29;20241;-90
2022/05/25 05:01:20;;;;;;;0.80;0.80;;;14.80;99.90;;;;;;4916715;29;20237;-89
2022/05/25 05:03:51;;;;;;;0.80;0.80;;;14.80;99.90;;;;;;4917208;29;20230;-90
2022/05/25 05:06:19;;;;;;;0.68;0.68;;;14.90;99.90;;;;;;4917361;29;20234;-89
2022/05/25 05:08:48;;;;;;;1.10;1.10;;;14.90;99.90;;;;;;4916956;29;20206;-90
2022/05/25 05:11:18;;;;;;;1.02;1.00;;;14.90;99.90;;;;;;4917183;29;20231;-89
2022/05/25 05:13:47;;;;;;;0.90;0.90;;;14.90;99.90;;;;;;4916669;29;20262;-89
2022/05/25 05:16:17;;;;;;;1.08;1.08;;;14.90;99.90;;;;;;4916838;29;20211;-90
2022/05/25 05:18:46;;;;;;;1.13;1.13;;;14.90;99.90;;;;;;4917075;29;20241;-89
2022/05/25 05:21:16;;;;;;;2.42;1.20;;;14.90;99.90;;;;;;4916698;29;20230;-90
2022/05/25 05:23:44;;;;;;;1.10;1.10;;;15.00;99.90;;;;;;4916799;29;20298;-90
2022/05/25 05:26:13;;;;;;;0.90;0.90;;;15.00;99.90;;;;;;4916968;29;20289;-89
2022/05/25 05:28:44;;;;;;;1.35;1.25;;;15.00;99.90;;;;;;4917172;29;20214;-90
2022/05/25 05:31:15;;;;;;;1.48;1.38;;;15.10;99.90;;;;;;4916692;29;20214;-90
2022/05/25 05:33:44;;;;;;;1.17;1.17;;;15.10;99.90;;;;;;4917091;29;20260;-90
2022/05/25 05:36:17;;;;;;;1.45;1.35;;;15.10;99.90;;;;;;4916969;29;20269;-90
2022/05/25 05:38:50;;;;;;;1.50;1.35;;;15.20;99.90;;;;;;4916199;29;20238;-89
2022/05/25 05:41:20;;;;;;;1.33;1.27;;;15.20;99.90;;;;;;4916072;29;20229;-90
2022/05/25 05:43:49;;;;;;;1.77;1.65;;;15.40;99.90;;;;;;4916657;29;20253;-89
2022/05/25 05:46:18;;;;;;;1.13;1.13;;;15.50;99.90;;;;;;4916928;29;20214;-89
2022/05/25 05:48:47;;;;;;;1.20;1.20;;;15.60;99.90;;;;;;4916558;29;20216;-89
2022/05/25 05:51:17;;;;;;;1.00;1.00;;;15.70;99.90;;;;;;4916151;29;20234;-90
2022/05/25 05:53:46;;;;;;;1.10;1.00;;;15.70;99.90;;;;;;4916971;29;20274;-89
2022/05/25 05:56:15;;;;;;;1.38;1.27;;;15.70;99.90;;;;;;4916400;29;20265;-90
2022/05/25 05:58:51;;;;;;;1.38;1.27;;;15.70;99.90;;;;;;4916790;29;20214;-89
2022/05/25 06:01:20;;;;;;;5.32;1.30;;;15.70;99.90;;;;;;4916057;29;20238;-89
2022/05/25 06:03:49;;;;;;;1.55;0.90;;;15.70;99.90;;;;;;4916265;29;20226;-89
2022/05/25 06:06:19;;;;;;;1.42;1.35;;;15.80;99.90;;;;;;4916330;29;20214;-89
2022/05/25 06:12:35;;;;;;;1.52;1.42;;;15.90;99.90;;;;;;4916166;29;20211;-89
2022/05/25 06:21:08;;;;;;;2.25;1.75;;;15.70;99.90;;;;;;4915961;29;20230;-89
2022/05/25 06:23:45;;;;;;;1.90;1.80;;;15.70;99.90;;;;;;4916000;29;20226;-88
2022/05/25 06:26:14;;;;;;;1.38;1.13;;;15.70;99.90;;;;;;4918688;29;20217;-89
2022/05/25 06:32:45;;;;;;;1.63;1.52;;;15.70;99.90;;;;;;4806595;29;20268;-89
2022/05/25 06:48:08;;;;;;;1.75;1.63;;;16.10;99.90;;;;;;5074863;23;20234;-79
2022/05/25 06:50:36;;;;;;;1.65;1.55;;;16.00;99.90;;;;;;4919523;29;20329;-80
2022/05/25 06:53:09;;;;;;;1.40;1.30;;;16.10;99.90;;;;;;4919022;29;20254;-80
2022/05/25 06:55:37;;;;;;;1.55;1.45;;;16.20;99.90;;;;;;4919486;29;20230;-80
2022/05/25 06:58:10;;;;;;;1.50;1.40;;;16.10;99.90;;;;;;4920191;29;20238;-81
2022/05/25 07:00:40;;;;;;;1.90;1.80;;;16.20;99.90;;;;;;4907640;29;20337;-81
2022/05/25 07:03:10;;;;;;;1.33;1.33;;;16.20;99.90;;;;;;4901106;29;20298;-80
2022/05/25 07:05:46;;;;;;;1.58;1.48;;;16.30;99.90;;;;;;4917559;29;20301;-80
2022/05/25 07:08:14;;;;;;;1.30;1.25;;;16.40;99.90;;;;;;4920042;29;20210;-79
2022/05/25 07:10:45;;;;;;;1.65;1.55;;;16.30;99.90;;;;;;4913554;29;20212;-80
2022/05/25 07:13:15;;;;;;;1.38;1.33;;;16.40;99.90;;;;;;4901244;29;20235;-80
2022/05/25 07:15:43;;;;;;;1.38;1.30;;;16.40;99.90;;;;;;4916595;29;20239;-80
2022/05/25 07:18:13;;;;;;;4.22;3.33;;;16.50;99.90;;;;;;4920118;29;20262;-80
2022/05/25 07:20:41;;;;;;;2.33;1.88;;;16.60;99.90;;;;;;4919415;29;20319;-80
2022/05/25 07:23:10;;;;;;;1.63;1.52;;;16.80;99.90;;;;;;4919739;29;20231;-80
2022/05/25 07:25:38;;;;;;;2.10;1.90;;;16.90;99.90;;;;;;4908271;29;20239;-80
2022/05/25 07:28:07;;;;;;;1.65;1.45;;;17.00;99.90;;;;;;4903148;29;20207;-80
2022/05/25 07:30:35;;;;;;;1.30;1.25;;;16.80;99.90;;;;;;4919233;29;20199;-80
2022/05/25 07:33:04;;;;;;;1.25;1.20;;;16.90;99.90;;;;;;4912554;29;20254;-79
2022/05/25 07:35:34;;;;;;;2.08;1.50;;;17.00;99.90;;;;;;4900898;29;20211;-80
2022/05/25 07:38:03;;;;;;;1.55;1.13;;;17.10;99.90;;;;;;4899494;29;20219;-79
2022/05/25 07:40:35;;;;;;;1.00;1.00;;;17.20;99.90;;;;;;4899949;29;20234;-79
2022/05/25 07:43:09;;;;;;;1.30;1.20;;;17.30;99.90;;;;;;4899744;29;20299;-79
2022/05/25 07:45:40;;;;;;;1.70;1.58;;;17.30;99.90;;;;;;4900796;29;20211;-79
2022/05/25 07:48:09;;;;;;;1.70;1.60;;;17.20;99.90;;;;;;4900587;29;20239;-79
2022/05/25 07:50:39;;;;;;;14.45;2.10;;;17.20;99.90;;;;;;4900330;29;20207;-79
2022/05/25 07:53:55;;;;;;;4.07;1.00;;;17.20;99.90;;;;;;4900125;29;20223;-79
2022/05/25 07:55:57;;;;;;;1.95;1.10;;;17.30;99.90;;;;;;4900432;29;20280;-79
2022/05/25 07:58:26;;;;;;;1.00;0.95;;;17.30;99.90;;;;;;4900692;29;20279;-79
2022/05/25 08:00:56;;;;;;;1.15;1.15;;;17.40;99.90;;;;;;4900384;29;20231;-79
2022/05/25 08:06:11;;;;;;;0.82;0.82;;;17.60;99.90;;;;;;4916577;29;20199;-79
2022/05/25 08:08:40;;;;;;;0.93;0.88;;;17.70;99.90;;;;;;4919144;29;20274;-79
2022/05/25 08:11:11;;;;;;;1.13;1.10;;;17.80;99.90;;;;;;4918851;29;20203;-79
2022/05/25 08:13:43;;;;;;;0.90;0.90;;;18.00;99.90;;;;;;4909282;29;20252;-79
2022/05/25 08:16:11;;;;;;;0.80;0.80;;;18.10;99.90;;;;;;4903416;29;20202;-79
2022/05/25 08:18:40;;;;;;;0.80;0.80;;;18.30;99.90;;;;;;4910190;29;20203;-79
2022/05/25 08:21:08;;;;;;;0.80;0.80;;;18.50;99.90;;;;;;4902028;29;20298;-79
2022/05/25 08:23:38;;;;;;;0.95;0.80;;;18.60;99.90;;;;;;4899652;29;20235;-79
2022/05/25 08:26:06;;;;;;;0.93;0.93;;;18.70;99.90;;;;;;4899958;29;20404;-79
2022/05/25 08:28:35;;;;;;;1.10;1.05;;;18.90;99.90;;;;;;4899696;29;20262;-79
2022/05/25 08:31:03;;;;;;;1.15;1.05;;;19.20;99.90;;;;;;4899334;29;20302;-79
2022/05/25 08:33:50;;;;;;;0.60;0.60;;;19.40;99.90;;;;;;4903380;29;20227;-79
2022/05/25 08:36:18;;;;;;;0.85;0.85;;;19.70;99.90;;;;;;4914611;29;20202;-79
2022/05/25 08:38:48;;;;;;;0.73;0.73;;;19.90;99.90;;;;;;4901319;29;20210;-79
2022/05/25 08:41:30;;;;;;;2.53;0.80;;;20.20;99.90;;;;;;4899064;29;20283;-79
2022/05/25 08:44:00;;;;;;;0.95;0.93;;;20.30;99.90;;;;;;4903946;29;20253;-79
2022/05/25 08:46:31;;;;;;;0.82;0.82;;;20.70;99.90;;;;;;4899772;29;20239;-79
2022/05/25 08:49:02;;;;;;;0.70;0.70;;;21.20;99.90;;;;;;4902614;29;20235;-79
2022/05/25 08:51:43;;;;;;;1.10;1.10;;;21.20;99.90;;;;;;4918138;29;20206;-79
2022/05/25 08:54:14;;;;;;;1.00;1.00;;;21.30;99.90;;;;;;4917614;29;20297;-79
2022/05/25 08:56:46;;;;;;;1.13;1.10;;;21.40;99.90;;;;;;4918278;29;20199;-79
2022/05/25 08:59:22;;;;;;;0.85;0.85;;;21.40;99.90;;;;;;4918056;29;20203;-79
2022/05/25 09:01:56;;;;;;;1.73;1.35;;;21.30;99.90;;;;;;4917447;29;20229;-79
2022/05/25 09:04:33;;;;;;;0.73;0.73;;;21.20;99.90;;;;;;4912547;29;20229;-79
2022/05/25 09:07:09;;;;;;;2.38;1.08;;;20.90;99.90;;;;;;4899070;29;20211;-79
2022/05/25 09:09:42;;;;;;;0.98;0.98;;;21.00;99.90;;;;;;4899281;29;20278;-79
2022/05/25 09:12:30;;;;;;;1.35;1.20;;;21.40;99.90;;;;;;4898532;29;20211;-79
2022/05/25 09:15:03;;;;;;;0.90;0.90;;;21.90;99.90;;;;;;4899202;29;20230;-80
2022/05/25 09:17:37;;;;;;;0.60;0.60;;;22.60;99.90;;;;;;4898670;29;20239;-80
2022/05/25 09:20:08;;;;;;;0.90;0.90;;;23.40;99.90;;;;;;4898774;29;20239;-79
2022/05/25 09:22:38;;;;;;;0.70;0.70;;;23.40;99.90;;;;;;4899648;29;20223;-79
2022/05/25 09:25:10;;;;;;;0.93;0.93;;;23.20;99.90;;;;;;4898943;29;20203;-80
2022/05/25 09:27:42;;;;;;;1.42;1.33;;;23.50;99.90;;;;;;4899501;29;20207;-80
2022/05/25 09:30:12;;;;;;;0.82;0.82;;;23.70;99.90;;;;;;4898715;29;20214;-80
2022/05/25 09:32:49;;;;;;;0.90;0.90;;;24.00;99.90;;;;;;4898720;29;20203;-80
2022/05/25 09:35:21;;;;;;;1.10;0.90;;;24.80;99.90;;;;;;4911401;29;20289;-79
2022/05/25 09:37:55;;;;;;;0.65;0.65;;;25.70;99.90;;;;;;4917597;29;20289;-79
2022/05/25 09:40:32;;;;;;;1.40;1.13;;;26.30;99.90;;;;;;4917434;29;20266;-80
2022/05/25 09:43:04;;;;;;;1.00;1.00;;;26.50;99.90;;;;;;4916991;29;20333;-80
2022/05/25 09:45:41;;;;;;;0.75;0.73;;;26.50;99.90;;;;;;4917218;29;20230;-82
2022/05/25 09:48:16;;;;;;;1.58;1.00;;;25.50;99.90;;;;;;4917737;29;20281;-80
2022/05/25 09:50:46;;;;;;;2.28;1.20;;;24.90;99.90;;;;;;4916960;29;20245;-80
2022/05/25 09:53:19;;;;;;;1.38;1.27;;;24.80;99.90;;;;;;4916908;29;20253;-80
2022/05/25 09:55:54;;;;;;;1.08;1.08;;;24.70;99.90;;;;;;4914175;29;20269;-93
2022/05/25 09:58:31;;;;;;;1.13;1.08;;;24.80;99.90;;;;;;4898175;29;20229;-82
2022/05/25 10:01:06;;;;;;;1.10;1.10;;;24.40;99.90;;;;;;4897559;29;20238;-82
2022/05/25 10:03:38;;;;;;;1.08;1.08;;;23.90;99.90;;;;;;4897924;29;20241;-81
2022/05/25 10:06:25;;;;;;;1.25;1.10;;;23.30;99.90;;;;;;4912606;29;20241;-80
2022/05/25 10:09:08;;;;;;;0.82;0.82;;;22.90;99.90;;;;;;4902759;29;20266;-80
2022/05/25 10:11:44;;;;;;;1.10;1.02;;;23.00;99.90;;;;;;4906433;29;20203;-80
2022/05/25 10:14:32;;;;;;;1.30;1.20;;;23.90;99.90;;;;;;4910264;29;20218;-80
2022/05/25 10:17:07;;;;;;;1.10;1.10;;;25.10;99.90;;;;;;4916941;29;20238;-80
2022/05/25 10:19:47;;;;;;;1.00;1.00;;;25.90;99.90;;;;;;4912833;29;20225;-79
2022/05/25 10:22:30;;;;;;;1.52;1.42;;;26.30;99.90;;;;;;4899248;29;20257;-78
2022/05/25 10:25:01;;;;;;;0.93;0.93;;;26.40;99.90;;;;;;4897734;29;20297;-78
2022/05/25 10:27:36;;;;;;;1.30;1.20;;;26.20;99.90;;;;;;4898153;29;20294;-79
2022/05/25 10:38:51;;;;;;;0.88;0.88;;;23.10;99.90;;;;;;4898174;29;20231;-76
2022/05/25 10:41:41;;;;;;;1.00;1.00;;;23.60;99.90;;;;;;4898023;29;20215;-80
2022/05/25 10:44:17;;;;;;;1.58;1.48;;;23.70;99.90;;;;;;4897396;29;20239;-79
2022/05/25 10:46:53;;;;;;;0.98;0.98;;;23.50;99.90;;;;;;4898131;29;20257;-79
2022/05/25 11:20:56;;;;;;;1.27;1.10;;;22.10;99.90;;;;;;5233079;23;20242;-91
2022/05/25 11:31:22;;;;;;;0.93;0.93;;;21.20;99.90;;;;;;4918782;29;20193;-90
2022/05/25 12:08:53;;;;;;;0.93;0.93;;;19.70;99.90;;;;;;4937813;29;20254;-89
2022/05/25 12:18:01;;;;;;;1.50;1.40;;;19.30;99.90;;;;;;4965243;23;20241;-89
2022/05/25 12:20:35;;;;;;;1.08;1.08;;;19.00;99.90;;;;;;4937721;29;20232;-88
2022/05/25 12:23:08;;;;;;;1.17;1.17;;;18.50;99.90;;;;;;4937006;29;20238;-89
2022/05/25 12:25:42;;;;;;;1.10;1.10;;;18.30;99.90;;;;;;4921257;29;20198;-88
2022/05/25 12:28:11;;;;;;;1.85;1.27;;;18.20;99.90;;;;;;4918492;29;20269;-89
2022/05/25 12:30:43;;;;;;;1.23;1.23;;;18.20;99.90;;;;;;4918384;29;20210;-90
2022/05/25 12:33:16;;;;;;;1.17;1.17;;;18.00;99.90;;;;;;4909795;29;20282;-89
2022/05/25 12:35:45;;;;;;;1.52;1.42;;;18.10;99.90;;;;;;4918080;29;20207;-89
2022/05/25 12:38:14;;;;;;;1.88;1.65;;;18.20;99.90;;;;;;4918180;29;20305;-90
2022/05/25 12:40:47;;;;;;;9.30;1.40;;;18.30;99.90;;;;;;4918163;29;20230;-88
2022/05/25 12:43:52;;;;;;;1.42;1.35;;;18.30;99.90;;;;;;4917974;29;20233;-90
2022/05/25 12:49:48;;;;;;;1.65;1.55;;;17.80;99.90;;;;;;4918068;29;20261;-89
2022/05/25 12:52:43;;;;;;;1.50;1.40;;;17.70;99.90;;;;;;4916318;29;20217;-89
2022/05/25 12:55:34;;;;;;;1.45;1.35;;;17.60;99.90;;;;;;4908922;29;20203;-90
2022/05/25 12:58:31;;;;;;;1.48;1.38;;;17.30;99.90;;;;;;4917765;29;20230;-89
2022/05/25 13:01:06;;;;;;;1.70;1.60;;;17.30;99.90;;;;;;4917536;29;20241;-90
2022/05/25 13:03:41;;;;;;;1.38;1.27;;;17.20;99.90;;;;;;4917393;29;20238;-89
2022/05/25 13:06:11;;;;;;;1.60;1.50;;;17.30;99.90;;;;;;4917755;29;20241;-90
2022/05/25 13:09:10;;;;;;;1.50;1.40;;;17.30;99.90;;;;;;4917588;29;20218;-88
2022/05/25 13:11:47;;;;;;;1.50;1.40;;;17.30;99.90;;;;;;4917262;29;20245;-87
2022/05/25 13:14:54;;;;;;;2.13;1.80;;;17.30;99.90;;;;;;4923419;29;20217;-88
2022/05/25 13:17:48;;;;;;;2.45;1.92;;;17.30;99.90;;;;;;4921998;29;20210;-88
2022/05/25 13:20:46;;;;;;;2.45;1.65;;;17.30;99.90;;;;;;4917242;29;20279;-88
2022/05/25 13:23:48;;;;;;;1.98;1.88;;;17.30;99.90;;;;;;4917916;29;20234;-89
2022/05/25 13:26:20;;;;;;;1.50;1.45;;;17.20;99.90;;;;;;4917327;29;20269;-88
2022/05/25 13:28:52;;;;;;;1.85;1.75;;;17.20;99.90;;;;;;4917442;29;20226;-88
2022/05/25 13:31:29;;;;;;;2.42;2.22;;;17.20;99.90;;;;;;4917118;29;20211;-88
2022/05/25 13:34:10;;;;;;;2.28;2.08;;;17.30;99.90;;;;;;4917062;29;20226;-89
2022/05/25 13:36:44;;;;;;;2.72;2.53;;;17.30;99.90;;;;;;4924911;29;20244;-90
2022/05/25 13:39:18;;;;;;;2.80;2.47;;;17.20;99.90;;;;;;4917117;29;20229;-87
2022/05/25 13:41:55;;;;;;;2.67;2.47;;;17.20;99.90;;;;;;4933721;29;20202;-87
2022/05/25 13:44:27;;;;;;;2.45;2.25;;;17.20;99.90;;;;;;4925161;29;20246;-87
2022/05/25 13:46:57;;;;;;;2.83;2.53;;;17.40;99.90;;;;;;4917121;29;20222;-87
2022/05/25 13:49:31;;;;;;;4.05;3.10;;;17.50;99.90;;;;;;4936135;29;20233;-87
2022/05/25 13:52:14;;;;;;;2.78;2.53;;;17.60;99.90;;;;;;4931462;29;20211;-87
2022/05/25 13:54:45;;;;;;;3.25;3.03;;;17.70;99.90;;;;;;4935849;29;20229;-87
2022/05/25 13:57:28;;;;;;;3.13;2.83;;;17.80;99.90;;;;;;4932660;29;20199;-87
2022/05/25 13:59:57;;;;;;;4.35;3.05;;;17.80;99.90;;;;;;4917065;29;20281;-87
2022/05/25 14:02:29;;;;;;;2.78;2.58;;;17.70;99.90;;;;;;4917049;29;20211;-87
2022/05/25 14:05:02;;;;;;;2.83;2.58;;;17.70;99.90;;;;;;4926852;29;20312;-87
2022/05/25 14:07:38;;;;;;;3.25;3.00;;;17.70;99.90;;;;;;4897908;29;20236;-87
2022/05/25 14:13:17;;;;;;;4.82;2.75;;;17.80;99.90;;;;;;4897603;29;20235;-89
2022/05/25 14:16:03;;;;;;;2.38;2.28;;;18.00;99.90;;;;;;4897959;29;20226;-88
2022/05/25 14:18:54;;;;;;;2.80;2.60;;;18.00;99.90;;;;;;4915166;29;20201;-86
2022/05/25 14:21:34;;;;;;;5.00;3.05;;;18.00;99.90;;;;;;4935658;29;20244;-85
2022/05/25 14:24:07;;;;;;;2.78;2.30;;;18.00;99.90;;;;;;4935362;29;20294;-86
2022/05/25 14:26:37;;;;;;;3.05;2.85;;;17.90;99.90;;;;;;4935475;29;20225;-85
2022/05/25 14:29:09;;;;;;;3.35;2.70;;;18.00;99.90;;;;;;4935681;29;20213;-85
2022/05/25 14:31:42;;;;;;;2.95;2.58;;;18.00;99.90;;;;;;4935902;29;20293;-85
2022/05/25 14:34:14;;;;;;;2.78;2.58;;;18.00;99.90;;;;;;4935744;29;20249;-85
2022/05/25 14:36:46;;;;;;;2.88;2.67;;;18.10;99.90;;;;;;4935370;29;20269;-85
2022/05/25 14:39:19;;;;;;;2.40;2.20;;;17.90;99.90;;;;;;4936112;29;20216;-85
2022/05/25 14:41:50;;;;;;;3.83;3.03;;;18.00;99.90;;;;;;4919857;29;20298;-85
2022/05/25 14:44:41;;;;;;;2.85;2.58;;;17.90;99.90;;;;;;4916726;29;20317;-85
2022/05/25 14:47:18;;;;;;;3.40;3.10;;;17.70;99.90;;;;;;4919246;29;20215;-85
2022/05/25 14:49:55;;;;;;;4.20;3.13;;;17.60;99.90;;;;;;4904856;29;20214;-85
2022/05/25 14:52:27;;;;;;;3.08;2.80;;;17.50;99.90;;;;;;4901632;29;20219;-85
2022/05/25 14:55:21;;;;;;;3.15;2.90;;;17.40;99.90;;;;;;4906228;29;20331;-85
2022/05/25 14:58:09;;;;;;;2.95;2.75;;;17.20;99.90;;;;;;4905176;29;20225;-85
2022/05/25 15:00:40;;;;;;;2.80;2.60;;;17.20;99.90;;;;;;4908766;29;20254;-85
2022/05/25 15:03:09;;;;;;;2.80;2.63;;;17.20;99.90;;;;;;4917965;29;20281;-85
2022/05/25 15:05:59;;;;;;;3.15;2.85;;;17.10;99.90;;;;;;4900810;29;20255;-85
2022/05/25 15:08:32;;;;;;;3.15;2.90;;;16.90;99.90;;;;;;4917881;29;20302;-85
2022/05/25 15:11:36;;;;;;;3.30;3.10;;;16.80;99.90;;;;;;4919933;29;20213;-84
2022/05/25 15:20:17;;;;;;;3.15;2.95;;;16.50;99.90;;;;;;4901226;29;20298;-89
2022/05/25 15:22:49;;;;;;;4.47;3.72;;;16.40;99.90;;;;;;4917658;29;20222;-86
2022/05/25 15:25:40;;;;;;;3.45;3.25;;;16.30;99.90;;;;;;4919099;29;20226;-88
2022/05/25 15:28:11;;;;;;;3.35;2.95;;;16.30;99.90;;;;;;4900592;29;20303;-83
2022/05/25 15:30:44;;;;;;;2.88;2.70;;;16.30;99.90;;;;;;4900324;29;20203;-85
2022/05/25 15:33:16;;;;;;;3.45;3.22;;;16.30;99.90;;;;;;4900797;29;20227;-85
2022/05/25 15:35:45;;;;;;;3.28;3.00;;;16.30;99.90;;;;;;4900414;29;20239;-85
2022/05/25 15:38:14;;;;;;;2.92;2.72;;;16.30;99.90;;;;;;4899706;29;20311;-85
2022/05/25 15:40:46;;;;;;;3.33;3.13;;;16.30;99.90;;;;;;4899506;29;20214;-85